Terminal Aerodrome Forecast
Issued by NWS Pendleton, OR

Home | Current Version | Previous Version | Text Only | Print | Product List | Glossary On
Versions: 1 2 3 4 5 6 7 8 9 10 11 12 13 14 15 16 17 18 19 20 21 22 23 24 25 26 27 28 29 30 31 32 33 34
000
FTUS46 KPDT 311700
TAFPDT
TAF
KPDT 311720Z 3118/0118 15007KT 5SM BR OVC003
      TEMPO 3118/3122 1SM BR OVC001
     FM312200 32007KT P6SM OVC012
     FM010400 15007KT P6SM OVC008
      TEMPO 0110/0114 2SM BR OVC001=

USA.gov is the U.S. government's official web portal to all federal, state and local government web resources and services.